Alamogordo White Sands Regional Airport
KALM : now visible

Airfield :











YOU CAN JOIN US ON...

 
LOGIN :

Register | Disclaimer

   EN    FR    IT 

 









Legend :    VFR   Marginal VFR   IFR   Intensive IFR   Very Intensive IFR
Visi :
Ceiling :
>= 8 km
>= 3000ft
5 to 8 km
1000 to 3000 ft
1500m to 5 km
500 to 1000 ft
800 to 1500m
200 to 500 ft
< 800m
< 200 ft
Symbols :   Thunderstorms  Fog  Heavy snow  Heavy precipitations  Wind > 20 kt






- Airport Elevation : 4200 ft
- IATA code : ALM


KALM - Alamogordo White Sands Regional

CURRENT METAR :
  • 081755Z AUTO 20010G18KT 10SM CLR 18/M07 A2993 RMK AO2

EXPIRED METARs :
  • 081735Z AUTO 20015KT M1/4SM HZ VV000 18/M06 A2993 RMK AO2
  • 081715Z AUTO 20012KT 10SM CLR 17/M05 A2994 RMK AO2
  • 081655Z AUTO 18008KT 10SM CLR 17/M05 A2995 RMK AO2
  • 081635Z AUTO VRB05G11KT 10SM CLR 17/M04 A2996 RMK AO2
  • 081615Z AUTO 19007KT 10SM CLR 16/M04 A2997 RMK AO2
  • 081555Z AUTO 19007KT 10SM CLR 15/M03 A2997 RMK AO2
  • 081535Z AUTO 15004KT 10SM CLR 14/M01 A2997 RMK AO2
  • 081515Z AUTO 16006KT 10SM CLR 13/M02 A2995 RMK AO2
  • 081455Z AUTO 14007KT 10SM CLR 10/M02 A2995 RMK AO2
  • 081435Z AUTO 15008KT 10SM CLR 08/M03 A2995 RMK AO2
  • 081415Z AUTO 17009KT 7SM CLR 09/M07 A2995 RMK AO2
  • 081355Z AUTO 21008KT 10SM CLR 11/M07 A2994 RMK AO2
  • 081335Z AUTO 20009KT 10SM FEW044 FEW050 10/M07 A2994 RMK AO2
  • 081315Z AUTO 15006KT 10SM FEW041 SCT047 09/M08 A2992 RMK AO2

TAF N/A
KZAB FIR / North America



MET'MAP, your aeronautical weather chart ! - Copyright ORBIFLY December 2007 - Disclaimer

ORBIFLY MET'MAP TEAM :

Programming & Development : Alexandra Zaïnal
Original concept : Baudouin d'Aumeries
Technical & hardware support : Manuel Goepfert
Assistance : Marc-Olivier Méhu




SOURCES & CREDITS :

   NOAA       Earth
Advisory